createdAt,value
2018-10-11T00:00:12.236Z,35.60
2018-10-11T00:02:40.435Z,40.23
2018-10-11T00:05:08.800Z,33.87
2018-10-11T00:07:36.823Z,35.97
2018-10-11T00:10:05.186Z,39.90
2018-10-11T00:12:33.343Z,38.57
2018-10-11T00:15:01.372Z,35.57
2018-10-11T00:17:29.480Z,35.07
2018-10-11T00:19:57.592Z,37.17
2018-10-11T00:22:25.599Z,34.37
2018-10-11T00:24:53.848Z,39.30
2018-10-11T00:27:22.145Z,37.63
2018-10-11T00:29:50.178Z,37.97
2018-10-11T00:32:18.211Z,38.00
2018-10-11T00:34:46.225Z,37.57
2018-10-11T00:37:14.256Z,44.10
2018-10-11T00:39:42.416Z,33.87
2018-10-11T00:42:10.435Z,35.90
2018-10-11T00:44:38.560Z,36.80
2018-10-11T00:47:07.053Z,40.97
2018-10-11T00:49:35.166Z,39.33
2018-10-11T00:52:03.305Z,35.27
2018-10-11T00:54:31.458Z,34.90
2018-10-11T00:56:59.548Z,37.20
2018-10-11T00:59:27.599Z,35.17
2018-10-11T01:01:55.673Z,36.77
2018-10-11T01:04:24.036Z,39.67
2018-10-11T01:06:52.055Z,35.80
2018-10-11T01:09:20.745Z,37.78
2018-10-11T01:11:48.873Z,36.40
2018-10-11T01:14:16.892Z,37.83
2018-10-11T01:16:45.020Z,42.40
2018-10-11T01:19:13.080Z,42.70
2018-10-11T01:21:42.132Z,42.97
2018-10-11T01:24:10.148Z,38.77
2018-10-11T01:26:38.528Z,37.57
2018-10-11T01:29:06.890Z,38.50
2018-10-11T01:31:34.899Z,38.50
2018-10-11T01:34:04.067Z,41.40
2018-10-11T01:36:32.359Z,36.17
2018-10-11T01:39:00.396Z,41.13
2018-10-11T01:41:28.432Z,37.70
2018-10-11T01:43:56.463Z,39.53
2018-10-11T01:46:24.480Z,37.80
2018-10-11T01:48:52.567Z,42.83
2018-10-11T01:51:20.606Z,40.33
2018-10-11T01:53:48.611Z,38.67
2018-10-11T01:56:16.660Z,41.00
2018-10-11T01:58:44.680Z,43.57
2018-10-11T02:01:28.091Z,43.00
2018-10-11T02:03:56.196Z,39.93
2018-10-11T02:06:24.220Z,36.23
2018-10-11T02:08:52.327Z,33.87
2018-10-11T02:11:20.988Z,41.83
2018-10-11T02:13:49.030Z,41.47
2018-10-11T02:16:17.060Z,49.67
2018-10-11T02:18:45.088Z,44.97
2018-10-11T02:21:13.279Z,46.07
2018-10-11T02:23:41.367Z,41.37
2018-10-11T02:26:09.446Z,42.38
2018-10-11T02:28:37.479Z,39.90
2018-10-11T02:31:05.788Z,43.63
2018-10-11T02:33:33.961Z,39.43
2018-10-11T02:36:02.032Z,39.87
2018-10-11T02:38:30.380Z,40.00
2018-10-11T02:40:58.469Z,44.70
2018-10-11T02:43:26.479Z,42.73
2018-10-11T02:45:54.504Z,39.33
2018-10-11T02:48:22.548Z,38.63
2018-10-11T02:50:50.555Z,40.70
2018-10-11T02:53:18.583Z,42.35
2018-10-11T02:55:46.760Z,38.97
2018-10-11T02:58:26.118Z,43.47
2018-10-11T03:00:54.148Z,50.60
2018-10-11T03:03:23.745Z,42.58
2018-10-11T03:05:52.116Z,44.40
2018-10-11T03:08:21.060Z,40.08
2018-10-11T03:10:49.539Z,38.77
2018-10-11T03:13:17.564Z,43.70
2018-10-11T03:15:45.584Z,44.97
2018-10-11T03:18:14.180Z,41.63
2018-10-11T03:20:43.304Z,41.60
2018-10-11T03:23:12.039Z,38.20
2018-10-11T03:25:40.623Z,45.37
2018-10-11T03:28:08.695Z,38.67
2018-10-11T03:30:36.712Z,46.77
2018-10-11T03:33:05.266Z,43.10
2018-10-11T03:35:33.272Z,34.60
2018-10-11T03:38:01.296Z,35.20
2018-10-11T03:40:29.859Z,32.93
2018-10-11T03:42:57.900Z,32.87
2018-10-11T03:45:26.020Z,35.23
2018-10-11T03:47:54.048Z,34.40
2018-10-11T03:50:22.073Z,37.85
2018-10-11T03:52:50.095Z,31.20
2018-10-11T03:55:18.126Z,33.47
2018-10-11T03:57:46.155Z,33.77
2018-10-11T04:00:14.244Z,35.57
2018-10-11T04:02:42.267Z,41.07
2018-10-11T04:05:10.396Z,34.90
2018-10-11T04:07:38.908Z,34.50
2018-10-11T04:10:15.067Z,33.83
2018-10-11T04:12:43.090Z,34.47
2018-10-11T04:15:11.136Z,36.60
2018-10-11T04:17:39.151Z,32.67
2018-10-11T04:20:07.311Z,34.33
2018-10-11T04:22:35.972Z,33.87
2018-10-11T04:25:17.848Z,32.90
2018-10-11T04:27:45.917Z,36.43
2018-10-11T04:30:14.159Z,34.07
2018-10-11T04:32:42.072Z,37.43
2018-10-11T04:35:10.263Z,48.33
2018-10-11T04:37:38.292Z,35.70
2018-10-11T04:40:06.308Z,35.97
2018-10-11T04:42:34.341Z,35.57
2018-10-11T04:45:02.343Z,36.90
2018-10-11T04:47:30.370Z,38.23
2018-10-11T04:49:58.547Z,36.83
2018-10-11T04:52:26.564Z,40.40
2018-10-11T04:54:54.584Z,42.80
2018-10-11T04:57:22.608Z,37.30
2018-10-11T04:59:50.645Z,36.63
2018-10-11T05:02:18.650Z,36.23
2018-10-11T05:04:46.666Z,36.65
2018-10-11T05:07:14.688Z,38.17
2018-10-11T05:09:42.756Z,44.37
2018-10-11T05:12:10.792Z,41.65
2018-10-11T05:14:38.812Z,39.43
2018-10-11T05:17:06.820Z,38.57
2018-10-11T05:19:35.088Z,37.50
2018-10-11T05:22:03.108Z,43.15
2018-10-11T05:24:31.132Z,42.90
2018-10-11T05:26:59.180Z,41.60
2018-10-11T05:29:27.212Z,39.30
2018-10-11T05:31:55.855Z,45.87
2018-10-11T05:34:23.870Z,39.93
2018-10-11T05:36:51.878Z,39.20
2018-10-11T05:39:19.919Z,41.63
2018-10-11T05:41:47.948Z,38.37
2018-10-11T05:44:34.251Z,39.90
2018-10-11T05:47:02.268Z,37.57
2018-10-11T05:49:30.896Z,37.97
2018-10-11T05:51:59.068Z,35.73
2018-10-11T05:54:27.085Z,43.53
2018-10-11T05:56:55.107Z,39.60
2018-10-11T05:59:23.280Z,40.80
2018-10-11T06:01:51.287Z,46.23
2018-10-11T06:04:19.399Z,49.93
2018-10-11T06:06:48.244Z,43.27
2018-10-11T06:09:16.386Z,40.40
2018-10-11T06:11:44.600Z,45.93
2018-10-11T06:14:13.054Z,41.55
2018-10-11T06:16:41.069Z,46.23
2018-10-11T06:19:09.076Z,46.63
2018-10-11T06:21:37.103Z,51.30
2018-10-11T06:24:05.124Z,49.73
2018-10-11T06:26:33.158Z,53.33
2018-10-11T06:29:01.320Z,48.17
2018-10-11T06:31:29.341Z,46.63
2018-10-11T06:33:57.377Z,44.97
2018-10-11T06:36:25.742Z,54.60
2018-10-11T06:38:54.847Z,62.23
2018-10-11T06:41:22.875Z,55.80
2018-10-11T06:43:50.897Z,59.47
2018-10-11T06:46:18.915Z,50.73
2018-10-11T06:48:46.930Z,51.43
2018-10-11T06:51:15.188Z,53.27
2018-10-11T06:53:43.264Z,51.47
2018-10-11T06:56:11.284Z,52.43
2018-10-11T06:58:39.300Z,52.77
2018-10-11T07:01:07.500Z,46.37
2018-10-11T07:03:35.940Z,50.00
2018-10-11T07:06:05.490Z,49.77
2018-10-11T07:08:33.528Z,49.90
2018-10-11T07:11:01.560Z,43.97
2018-10-11T07:13:30.097Z,41.67
2018-10-11T07:15:58.128Z,34.93
2018-10-11T07:18:26.700Z,42.80
2018-10-11T07:20:54.736Z,42.70
2018-10-11T07:23:22.760Z,40.57
2018-10-11T07:25:50.781Z,49.13
2018-10-11T07:28:18.803Z,46.13
2018-10-11T07:30:46.825Z,49.60
2018-10-11T07:33:14.844Z,50.27
2018-10-11T07:35:42.876Z,50.00
2018-10-11T07:38:10.968Z,57.83
2018-10-11T07:40:39.047Z,53.00
2018-10-11T07:43:07.048Z,48.83
2018-10-11T07:45:35.072Z,48.13
2018-10-11T07:48:04.317Z,51.97
2018-10-11T07:50:32.336Z,48.17
2018-10-11T07:53:00.397Z,48.00
2018-10-11T07:55:29.387Z,46.03
2018-10-11T07:57:57.416Z,53.30
2018-10-11T08:00:25.437Z,50.23
2018-10-11T08:02:53.456Z,46.93
2018-10-11T08:05:21.480Z,43.90
2018-10-11T08:07:49.780Z,48.03
2018-10-11T08:10:17.720Z,51.85
2018-10-11T08:12:45.798Z,47.63
2018-10-11T08:15:13.816Z,48.17
2018-10-11T08:17:42.172Z,40.45
2018-10-11T08:20:10.023Z,40.98
2018-10-11T08:22:38.012Z,40.83
2018-10-11T08:25:06.282Z,41.83
2018-10-11T08:27:34.105Z,39.43
2018-10-11T08:30:02.140Z,39.73
2018-10-11T08:32:30.527Z,40.00
2018-10-11T08:34:58.342Z,42.30
2018-10-11T08:37:26.476Z,38.33
2018-10-11T08:39:54.471Z,38.63
2018-10-11T08:42:22.504Z,37.50
2018-10-11T08:44:50.512Z,35.30
2018-10-11T08:47:18.699Z,37.60
2018-10-11T08:49:47.768Z,35.40
2018-10-11T08:52:15.804Z,34.37
2018-10-11T08:54:49.404Z,31.37
2018-10-11T08:57:19.207Z,30.93
2018-10-11T08:59:47.303Z,32.57
2018-10-11T09:02:15.259Z,31.87
2018-10-11T09:04:43.423Z,33.77
2018-10-11T09:07:11.440Z,30.93
2018-10-11T09:09:39.548Z,30.73
2018-10-11T09:12:07.494Z,29.07
2018-10-11T09:14:35.721Z,30.20
2018-10-11T09:17:03.743Z,28.63
2018-10-11T09:19:31.773Z,30.07
2018-10-11T09:22:00.385Z,31.37
2018-10-11T09:24:28.416Z,29.73
2018-10-11T09:26:56.527Z,28.07
2018-10-11T09:29:24.556Z,29.20
2018-10-11T09:31:52.571Z,26.03
2018-10-11T09:34:20.595Z,28.37
2018-10-11T09:36:48.631Z,28.77
2018-10-11T09:39:16.676Z,27.17
2018-10-11T09:41:44.710Z,26.77
2018-10-11T09:44:12.734Z,26.67
2018-10-11T09:46:40.759Z,25.63
2018-10-11T09:49:08.799Z,26.90
2018-10-11T09:51:36.791Z,26.67
2018-10-11T09:54:04.814Z,24.77
2018-10-11T09:57:13.008Z,25.37
2018-10-11T09:59:41.373Z,24.03
2018-10-11T10:02:10.928Z,23.90
2018-10-11T10:04:40.912Z,23.07
2018-10-11T10:07:09.428Z,22.80
2018-10-11T10:09:37.510Z,23.73
2018-10-11T10:12:05.687Z,22.10
2018-10-11T10:14:34.165Z,21.93
2018-10-11T10:17:02.376Z,22.07
2018-10-11T10:19:30.399Z,20.47
2018-10-11T10:21:58.416Z,20.53
2018-10-11T10:24:26.469Z,21.20
2018-10-11T10:26:54.597Z,20.13
2018-10-11T10:29:22.744Z,21.60
2018-10-11T10:31:51.188Z,19.20
2018-10-11T10:34:19.215Z,17.90
2018-10-11T10:36:48.287Z,19.53
2018-10-11T10:39:16.321Z,17.67
2018-10-11T10:41:44.361Z,17.63
2018-10-11T10:44:12.499Z,16.55
2018-10-11T10:46:40.768Z,18.70
2018-10-11T10:49:09.007Z,17.83
2018-10-11T10:51:37.032Z,16.30
2018-10-11T10:54:09.323Z,16.17
2018-10-11T10:56:37.340Z,15.30
2018-10-11T10:59:06.121Z,13.83
2018-10-11T11:01:34.154Z,13.13
2018-10-11T11:04:06.775Z,13.53
2018-10-11T11:06:34.795Z,14.40
2018-10-11T11:09:02.844Z,13.23
2018-10-11T11:11:33.015Z,12.57
2018-10-11T11:14:01.113Z,12.87
2018-10-11T11:16:29.116Z,11.40
2018-10-11T11:18:57.165Z,11.40
2018-10-11T11:21:25.426Z,11.70
2018-10-11T11:23:53.500Z,10.97
2018-10-11T11:26:22.168Z,11.20
2018-10-11T11:28:50.281Z,12.07
2018-10-11T11:31:18.332Z,10.75
2018-10-11T11:33:46.401Z,10.20
2018-10-11T11:36:14.445Z,9.80
2018-10-11T11:38:42.481Z,9.60
2018-10-11T11:41:10.503Z,9.53
2018-10-11T11:43:38.592Z,9.53
2018-10-11T11:46:06.783Z,9.97
2018-10-11T11:48:34.816Z,9.63
2018-10-11T11:51:02.996Z,8.80
2018-10-11T11:53:31.064Z,9.07
2018-10-11T11:55:59.109Z,7.97
2018-10-11T11:58:27.124Z,8.30
2018-10-11T12:00:55.204Z,8.03
2018-10-11T12:03:23.223Z,7.53
2018-10-11T12:05:51.328Z,9.13
2018-10-11T12:08:19.440Z,9.07
2018-10-11T12:10:47.471Z,8.43
2018-10-11T12:13:15.492Z,8.43
2018-10-11T12:15:44.242Z,7.65
2018-10-11T12:18:12.448Z,7.70
2018-10-11T12:20:41.598Z,6.80
2018-10-11T12:23:10.512Z,7.83
2018-10-11T12:25:38.560Z,7.93
2018-10-11T12:28:06.625Z,7.60
2018-10-11T12:30:34.633Z,8.30
2018-10-11T12:33:02.696Z,8.17
2018-10-11T12:35:31.244Z,6.83
2018-10-11T12:37:59.276Z,7.17
2018-10-11T12:40:27.313Z,7.07
2018-10-11T12:42:55.504Z,7.37
2018-10-11T12:45:23.556Z,7.00
2018-10-11T12:47:52.364Z,6.93
2018-10-11T12:50:20.404Z,8.50
2018-10-11T12:52:48.471Z,7.23
2018-10-11T12:55:16.511Z,7.10
2018-10-11T12:57:44.524Z,7.47
2018-10-11T13:00:14.132Z,6.87
2018-10-11T13:02:42.315Z,7.63
2018-10-11T13:05:10.310Z,7.17
2018-10-11T13:07:38.336Z,6.87
2018-10-11T13:10:08.023Z,6.83
2018-10-11T13:12:36.093Z,6.63
2018-10-11T13:15:04.816Z,7.33
2018-10-11T13:17:38.428Z,7.80
2018-10-11T13:20:01.364Z,6.53
2018-10-11T13:22:29.374Z,7.80
2018-10-11T13:24:57.400Z,7.87
2018-10-11T13:27:25.837Z,7.80
2018-10-11T13:29:53.869Z,7.47
2018-10-11T13:32:21.904Z,6.92
2018-10-11T13:34:50.984Z,7.20
2018-10-11T13:37:18.911Z,7.65
2018-10-11T13:39:53.066Z,7.57
2018-10-11T13:42:15.782Z,6.62
2018-10-11T13:44:43.812Z,7.00
2018-10-11T13:47:11.853Z,7.43
2018-10-11T13:49:39.851Z,6.87
2018-10-11T13:52:11.252Z,6.10
2018-10-11T13:54:36.348Z,7.03
2018-10-11T13:57:04.929Z,7.30
2018-10-11T13:59:32.948Z,6.27
2018-10-11T14:02:00.980Z,6.37
2018-10-11T14:04:29.013Z,8.07
2018-10-11T14:06:57.071Z,10.20
2018-10-11T14:09:25.112Z,7.53
2018-10-11T14:11:53.752Z,6.57
2018-10-11T14:14:21.795Z,5.83
2018-10-11T14:16:49.820Z,6.93
2018-10-11T14:19:18.028Z,5.90
2018-10-11T14:21:46.053Z,5.40
2018-10-11T14:24:14.141Z,5.67
2018-10-11T14:26:42.795Z,6.10
2018-10-11T14:29:10.812Z,6.27
2018-10-11T14:31:38.832Z,6.90
2018-10-11T14:34:07.464Z,6.53
2018-10-11T14:36:35.489Z,6.00
2018-10-11T14:39:04.140Z,5.80
2018-10-11T14:41:32.165Z,6.07
2018-10-11T14:44:00.180Z,5.77
2018-10-11T14:46:28.350Z,5.77
2018-10-11T14:48:57.183Z,6.13
2018-10-11T14:51:25.229Z,6.87
2018-10-11T14:53:56.638Z,6.73
2018-10-11T14:56:21.251Z,6.42
2018-10-11T14:58:49.273Z,6.10
2018-10-11T15:01:17.303Z,6.37
2018-10-11T15:03:45.745Z,6.07
2018-10-11T15:06:13.744Z,5.83
2018-10-11T15:08:41.788Z,5.50
2018-10-11T15:11:10.330Z,5.73
2018-10-11T15:13:37.827Z,5.97
2018-10-11T15:16:05.908Z,6.10
2018-10-11T15:18:33.972Z,6.50
2018-10-11T15:21:02.000Z,9.97
2018-10-11T15:23:30.036Z,6.80
2018-10-11T15:25:58.057Z,8.53
2018-10-11T15:28:26.108Z,8.00
2018-10-11T15:30:54.200Z,8.97
2018-10-11T15:33:22.227Z,7.60
2018-10-11T15:35:50.245Z,8.40
2018-10-11T15:38:18.912Z,7.40
2018-10-11T15:40:46.932Z,8.27
2018-10-11T15:43:14.939Z,8.37
2018-10-11T15:45:42.972Z,8.27
2018-10-11T15:48:11.016Z,8.35
2018-10-11T15:50:39.018Z,7.83
2018-10-11T15:53:08.092Z,8.20
2018-10-11T15:55:36.708Z,7.57
2018-10-11T15:58:04.735Z,8.50
2018-10-11T16:00:32.940Z,8.30
2018-10-11T16:03:00.975Z,8.80
2018-10-11T16:05:30.078Z,7.93
2018-10-11T16:07:58.044Z,7.67
2018-10-11T16:10:26.063Z,8.63
2018-10-11T16:12:54.089Z,7.97
2018-10-11T16:15:22.565Z,10.90
2018-10-11T16:17:50.650Z,8.10
2018-10-11T16:20:18.601Z,8.93
2018-10-11T16:22:46.620Z,8.70
2018-10-11T16:25:14.642Z,8.90
2018-10-11T16:27:42.660Z,8.67
2018-10-11T16:30:10.682Z,9.00
2018-10-11T16:32:38.704Z,9.23
2018-10-11T16:35:06.722Z,9.20
2018-10-11T16:37:35.408Z,22.77
2018-10-11T16:40:04.363Z,19.10
2018-10-11T16:42:32.379Z,15.80
2018-10-11T16:45:00.424Z,13.20
2018-10-11T16:47:28.472Z,12.97
2018-10-11T16:49:56.508Z,11.10
2018-10-11T16:52:24.550Z,11.80
2018-10-11T16:54:52.576Z,10.43
2018-10-11T16:57:21.600Z,10.33
2018-10-11T16:59:49.628Z,10.60
2018-10-11T17:02:17.659Z,10.00
2018-10-11T17:04:45.688Z,14.70
2018-10-11T17:07:13.712Z,14.23
2018-10-11T17:09:41.756Z,13.50
2018-10-11T17:12:09.788Z,18.35
2018-10-11T17:14:37.976Z,15.90
2018-10-11T17:17:06.008Z,14.03
2018-10-11T17:19:34.019Z,10.97
2018-10-11T17:22:02.134Z,13.37
2018-10-11T17:24:30.056Z,14.20
2018-10-11T17:26:58.066Z,17.50
2018-10-11T17:29:26.247Z,20.60
2018-10-11T17:31:54.263Z,21.03
2018-10-11T17:34:22.292Z,18.90
2018-10-11T17:36:50.306Z,15.73
2018-10-11T17:39:18.324Z,13.83
2018-10-11T17:41:46.380Z,12.13
2018-10-11T17:44:15.436Z,12.68
2018-10-11T17:46:43.532Z,14.58
2018-10-11T17:49:11.547Z,12.55
2018-10-11T17:51:39.569Z,11.63
2018-10-11T17:54:08.061Z,11.97
2018-10-11T17:56:36.948Z,11.63
2018-10-11T17:59:06.096Z,11.47
2018-10-11T18:01:34.122Z,10.37
2018-10-11T18:04:02.129Z,10.40
2018-10-11T18:06:30.360Z,10.07
2018-10-11T18:08:58.404Z,10.03
2018-10-11T18:11:26.948Z,9.93
2018-10-11T18:13:54.972Z,9.57
2018-10-11T18:16:23.012Z,9.30
2018-10-11T18:18:51.012Z,9.17
2018-10-11T18:21:19.032Z,9.40
2018-10-11T18:23:47.614Z,10.17
2018-10-11T18:26:15.676Z,11.80
2018-10-11T18:28:43.708Z,14.87
2018-10-11T18:31:11.740Z,14.63
2018-10-11T18:33:39.783Z,10.53
2018-10-11T18:36:07.813Z,11.20
2018-10-11T18:38:35.811Z,10.27
2018-10-11T18:41:03.836Z,9.90
2018-10-11T18:43:31.852Z,9.90
2018-10-11T18:45:59.874Z,17.93
2018-10-11T18:48:27.884Z,20.17
2018-10-11T18:50:56.000Z,14.13
2018-10-11T18:53:24.664Z,11.50
2018-10-11T18:55:52.747Z,16.87
2018-10-11T18:58:20.812Z,13.90
2018-10-11T19:00:48.835Z,15.63
2018-10-11T19:03:16.885Z,16.07
2018-10-11T19:05:45.527Z,19.70
2018-10-11T19:08:13.553Z,16.93
2018-10-11T19:10:41.600Z,17.40
2018-10-11T19:13:09.616Z,16.67
2018-10-11T19:15:37.628Z,15.03
2018-10-11T19:18:05.652Z,15.17
2018-10-11T19:20:33.684Z,20.60
2018-10-11T19:23:01.944Z,21.37
2018-10-11T19:25:30.000Z,20.00
2018-10-11T19:27:58.020Z,19.03
2018-10-11T19:30:26.052Z,18.40
2018-10-11T19:32:55.076Z,19.00
2018-10-11T19:35:23.106Z,15.30
2018-10-11T19:37:52.815Z,14.70
2018-10-11T19:40:20.869Z,13.58
2018-10-11T19:42:48.908Z,12.60
2018-10-11T19:45:17.084Z,14.67
2018-10-11T19:47:45.104Z,12.75
2018-10-11T19:50:13.742Z,13.10
2018-10-11T19:52:41.764Z,13.87
2018-10-11T19:55:09.772Z,13.88
2018-10-11T19:57:37.968Z,12.97
2018-10-11T20:00:07.024Z,13.67
2018-10-11T20:02:35.066Z,13.03
2018-10-11T20:05:03.097Z,16.37
2018-10-11T20:07:31.788Z,15.87
2018-10-11T20:09:59.977Z,17.23
2018-10-11T20:12:28.020Z,15.67
2018-10-11T20:14:56.036Z,14.60
2018-10-11T20:17:25.083Z,13.73
2018-10-11T20:19:54.097Z,15.27
2018-10-11T20:22:22.127Z,15.07
2018-10-11T20:24:50.168Z,16.33
2018-10-11T20:27:18.192Z,15.63
2018-10-11T20:29:46.296Z,14.80
2018-10-11T20:32:14.776Z,15.32
2018-10-11T20:34:42.796Z,15.55
2018-10-11T20:37:11.656Z,16.13
2018-10-11T20:39:40.299Z,15.23
2018-10-11T20:42:08.391Z,15.20
2018-10-11T20:44:36.432Z,14.33
2018-10-11T20:47:05.224Z,16.03
2018-10-11T20:49:33.344Z,16.00
2018-10-11T20:52:01.363Z,14.87
2018-10-11T20:54:29.374Z,13.73
2018-10-11T20:56:57.404Z,13.50
2018-10-11T20:59:25.667Z,12.27
2018-10-11T21:01:53.676Z,13.85
2018-10-11T21:04:21.675Z,13.23
2018-10-11T21:06:49.720Z,14.97
2018-10-11T21:09:17.739Z,12.95
2018-10-11T21:11:45.764Z,14.43
2018-10-11T21:14:13.776Z,13.77
2018-10-11T21:16:41.820Z,14.43
2018-10-11T21:19:09.852Z,15.13
2018-10-11T21:21:38.513Z,15.37
2018-10-11T21:24:06.564Z,14.80
2018-10-11T21:26:34.613Z,14.03
2018-10-11T21:29:02.628Z,14.77
2018-10-11T21:31:30.659Z,15.83
2018-10-11T21:33:58.672Z,15.17
2018-10-11T21:36:26.700Z,16.53
2018-10-11T21:38:54.717Z,16.03
2018-10-11T21:41:22.740Z,16.43
2018-10-11T21:43:50.752Z,16.63
2018-10-11T21:46:18.945Z,15.87
2018-10-11T21:48:46.912Z,17.90
2018-10-11T21:51:14.920Z,16.80
2018-10-11T21:53:42.940Z,17.13
2018-10-11T21:56:10.972Z,17.23
2018-10-11T21:58:39.512Z,18.70
2018-10-11T22:01:12.812Z,18.93
2018-10-11T22:03:40.834Z,17.23
2018-10-11T22:06:09.061Z,18.82
2018-10-11T22:08:37.134Z,17.97
2018-10-11T22:11:05.101Z,18.13
2018-10-11T22:13:33.124Z,17.97
2018-10-11T22:16:01.136Z,18.47
2018-10-11T22:18:29.153Z,18.65
2018-10-11T22:20:57.349Z,18.77
2018-10-11T22:23:25.335Z,19.43
2018-10-11T22:25:53.356Z,19.67
2018-10-11T22:28:21.536Z,18.67
2018-10-11T22:30:49.573Z,19.17
2018-10-11T22:33:17.595Z,18.30
2018-10-11T22:35:45.627Z,19.13
2018-10-11T22:38:13.657Z,18.80
2018-10-11T22:40:41.670Z,19.53
2018-10-11T22:43:09.688Z,20.68
2018-10-11T22:45:37.712Z,19.83
2018-10-11T22:48:05.764Z,19.07
2018-10-11T22:50:34.315Z,19.23
2018-10-11T22:53:02.331Z,19.60
2018-10-11T22:55:32.131Z,19.87
2018-10-11T22:58:00.584Z,20.90
2018-10-11T23:00:31.519Z,20.57
2018-10-11T23:02:59.547Z,19.50
2018-10-11T23:05:27.560Z,19.47
2018-10-11T23:07:55.576Z,19.07
2018-10-11T23:10:23.595Z,21.30
2018-10-11T23:12:51.617Z,20.37
2018-10-11T23:15:19.639Z,20.37
2018-10-11T23:17:48.676Z,19.67
2018-10-11T23:20:16.703Z,18.87
2018-10-11T23:22:44.721Z,19.20
2018-10-11T23:25:12.749Z,19.70
2018-10-11T23:27:41.409Z,20.10
2018-10-11T23:30:10.059Z,19.60
2018-10-11T23:32:38.401Z,19.23
2018-10-11T23:35:07.347Z,19.87
2018-10-11T23:37:35.451Z,18.73
2018-10-11T23:40:03.459Z,19.30
2018-10-11T23:42:31.479Z,20.50
2018-10-11T23:44:59.526Z,20.87
2018-10-11T23:47:42.484Z,19.53
2018-10-11T23:50:10.969Z,17.60
2018-10-11T23:52:38.186Z,18.93
2018-10-11T23:55:07.426Z,20.03
2018-10-11T23:57:35.640Z,20.57
